sensor_id;sensor_type;location;lat;lon;timestamp;P1;durP1;ratioP1;P2;durP2;ratioP2
19205;SDS011;59358;52.134;5.596;2023-02-28T00:01:31;8.70;;;4.88;;
19205;SDS011;59358;52.134;5.596;2023-02-28T00:04:00;9.43;;;4.78;;
19205;SDS011;59358;52.134;5.596;2023-02-28T00:06:27;9.68;;;4.28;;
19205;SDS011;59358;52.134;5.596;2023-02-28T00:08:54;7.70;;;4.90;;
19205;SDS011;59358;52.134;5.596;2023-02-28T00:11:21;10.38;;;4.20;;
19205;SDS011;59358;52.134;5.596;2023-02-28T00:13:49;10.27;;;4.53;;
19205;SDS011;59358;52.134;5.596;2023-02-28T00:16:16;7.63;;;4.30;;
19205;SDS011;59358;52.134;5.596;2023-02-28T00:18:44;9.45;;;4.50;;
19205;SDS011;59358;52.134;5.596;2023-02-28T00:21:13;7.57;;;4.28;;
19205;SDS011;59358;52.134;5.596;2023-02-28T00:23:40;5.35;;;4.60;;
19205;SDS011;59358;52.134;5.596;2023-02-28T00:26:07;6.63;;;4.20;;
19205;SDS011;59358;52.134;5.596;2023-02-28T00:28:34;5.55;;;4.03;;
19205;SDS011;59358;52.134;5.596;2023-02-28T00:31:01;8.52;;;3.90;;
19205;SDS011;59358;52.134;5.596;2023-02-28T00:33:28;10.65;;;4.53;;
19205;SDS011;59358;52.134;5.596;2023-02-28T00:36:02;8.38;;;4.32;;
19205;SDS011;59358;52.134;5.596;2023-02-28T00:38:31;12.88;;;4.63;;
19205;SDS011;59358;52.134;5.596;2023-02-28T00:40:58;9.60;;;5.03;;
19205;SDS011;59358;52.134;5.596;2023-02-28T00:43:29;8.27;;;4.25;;
19205;SDS011;59358;52.134;5.596;2023-02-28T00:45:57;12.27;;;4.10;;
19205;SDS011;59358;52.134;5.596;2023-02-28T00:48:24;9.05;;;4.70;;
19205;SDS011;59358;52.134;5.596;2023-02-28T00:50:51;7.20;;;3.47;;
19205;SDS011;59358;52.134;5.596;2023-02-28T00:53:17;9.07;;;4.35;;
19205;SDS011;59358;52.134;5.596;2023-02-28T00:55:46;9.25;;;4.00;;
19205;SDS011;59358;52.134;5.596;2023-02-28T00:58:12;6.97;;;4.03;;
19205;SDS011;59358;52.134;5.596;2023-02-28T01:00:39;5.25;;;3.50;;
19205;SDS011;59358;52.134;5.596;2023-02-28T01:03:06;8.00;;;3.58;;
19205;SDS011;59358;52.134;5.596;2023-02-28T01:05:33;8.93;;;3.97;;
19205;SDS011;59358;52.134;5.596;2023-02-28T01:08:00;8.85;;;3.45;;
19205;SDS011;59358;52.134;5.596;2023-02-28T01:10:27;6.90;;;3.55;;
19205;SDS011;59358;52.134;5.596;2023-02-28T01:12:57;8.07;;;4.10;;
19205;SDS011;59358;52.134;5.596;2023-02-28T01:15:24;4.90;;;3.50;;
19205;SDS011;59358;52.134;5.596;2023-02-28T01:17:51;7.03;;;3.78;;
19205;SDS011;59358;52.134;5.596;2023-02-28T01:20:18;9.57;;;3.95;;
19205;SDS011;59358;52.134;5.596;2023-02-28T01:22:45;11.05;;;3.85;;
19205;SDS011;59358;52.134;5.596;2023-02-28T01:25:12;7.85;;;3.97;;
19205;SDS011;59358;52.134;5.596;2023-02-28T01:27:39;7.15;;;3.88;;
19205;SDS011;59358;52.134;5.596;2023-02-28T01:30:08;9.38;;;3.85;;
19205;SDS011;59358;52.134;5.596;2023-02-28T01:32:36;8.55;;;4.32;;
19205;SDS011;59358;52.134;5.596;2023-02-28T01:35:03;8.40;;;3.72;;
19205;SDS011;59358;52.134;5.596;2023-02-28T01:37:30;9.85;;;3.63;;
19205;SDS011;59358;52.134;5.596;2023-02-28T01:39:57;6.00;;;3.45;;
19205;SDS011;59358;52.134;5.596;2023-02-28T01:42:23;4.57;;;3.00;;
19205;SDS011;59358;52.134;5.596;2023-02-28T01:45:00;7.72;;;4.05;;
19205;SDS011;59358;52.134;5.596;2023-02-28T01:47:32;7.10;;;4.30;;
19205;SDS011;59358;52.134;5.596;2023-02-28T01:50:03;10.50;;;3.80;;
19205;SDS011;59358;52.134;5.596;2023-02-28T01:52:33;5.90;;;3.75;;
19205;SDS011;59358;52.134;5.596;2023-02-28T01:55:01;6.80;;;3.55;;
19205;SDS011;59358;52.134;5.596;2023-02-28T01:57:32;7.63;;;3.50;;
19205;SDS011;59358;52.134;5.596;2023-02-28T02:00:03;7.47;;;3.95;;
19205;SDS011;59358;52.134;5.596;2023-02-28T02:02:35;7.13;;;3.95;;
19205;SDS011;59358;52.134;5.596;2023-02-28T02:05:05;6.45;;;4.13;;
19205;SDS011;59358;52.134;5.596;2023-02-28T02:07:34;9.13;;;3.92;;
19205;SDS011;59358;52.134;5.596;2023-02-28T02:10:04;12.75;;;4.85;;
19205;SDS011;59358;52.134;5.596;2023-02-28T02:12:40;12.05;;;3.88;;
19205;SDS011;59358;52.134;5.596;2023-02-28T02:15:24;7.65;;;3.83;;
19205;SDS011;59358;52.134;5.596;2023-02-28T02:17:59;10.10;;;4.72;;
19205;SDS011;59358;52.134;5.596;2023-02-28T02:23:50;6.20;;;4.18;;
19205;SDS011;59358;52.134;5.596;2023-02-28T02:26:48;9.52;;;4.28;;
19205;SDS011;59358;52.134;5.596;2023-02-28T02:29:25;7.47;;;3.97;;
19205;SDS011;59358;52.134;5.596;2023-02-28T02:32:19;8.57;;;4.53;;
19205;SDS011;59358;52.134;5.596;2023-02-28T02:35:09;6.00;;;3.95;;
19205;SDS011;59358;52.134;5.596;2023-02-28T02:37:40;7.22;;;4.20;;
19205;SDS011;59358;52.134;5.596;2023-02-28T02:40:13;6.60;;;3.78;;
19205;SDS011;59358;52.134;5.596;2023-02-28T02:42:45;6.75;;;4.20;;
19205;SDS011;59358;52.134;5.596;2023-02-28T02:45:17;14.07;;;4.28;;
19205;SDS011;59358;52.134;5.596;2023-02-28T02:47:49;7.63;;;4.32;;
19205;SDS011;59358;52.134;5.596;2023-02-28T02:50:19;8.10;;;4.22;;
19205;SDS011;59358;52.134;5.596;2023-02-28T02:52:51;6.63;;;3.65;;
19205;SDS011;59358;52.134;5.596;2023-02-28T02:55:23;6.07;;;4.07;;
19205;SDS011;59358;52.134;5.596;2023-02-28T02:57:51;6.57;;;4.18;;
19205;SDS011;59358;52.134;5.596;2023-02-28T03:00:22;6.65;;;4.35;;
19205;SDS011;59358;52.134;5.596;2023-02-28T03:02:52;8.32;;;4.35;;
19205;SDS011;59358;52.134;5.596;2023-02-28T03:05:23;7.28;;;4.38;;
19205;SDS011;59358;52.134;5.596;2023-02-28T03:07:52;5.85;;;3.85;;
19205;SDS011;59358;52.134;5.596;2023-02-28T03:10:26;5.10;;;4.07;;
19205;SDS011;59358;52.134;5.596;2023-02-28T03:12:57;7.95;;;4.28;;
19205;SDS011;59358;52.134;5.596;2023-02-28T03:15:36;7.93;;;4.43;;
19205;SDS011;59358;52.134;5.596;2023-02-28T03:18:10;5.63;;;3.70;;
19205;SDS011;59358;52.134;5.596;2023-02-28T03:20:47;11.75;;;4.43;;
19205;SDS011;59358;52.134;5.596;2023-02-28T03:23:21;6.13;;;3.75;;
19205;SDS011;59358;52.134;5.596;2023-02-28T03:25:55;8.77;;;3.90;;
19205;SDS011;59358;52.134;5.596;2023-02-28T03:28:28;7.28;;;4.13;;
19205;SDS011;59358;52.134;5.596;2023-02-28T03:31:03;6.78;;;4.07;;
19205;SDS011;59358;52.134;5.596;2023-02-28T03:33:38;7.38;;;3.83;;
19205;SDS011;59358;52.134;5.596;2023-02-28T03:36:10;8.98;;;4.78;;
19205;SDS011;59358;52.134;5.596;2023-02-28T03:38:41;7.05;;;4.28;;
19205;SDS011;59358;52.134;5.596;2023-02-28T03:41:12;9.73;;;4.53;;
19205;SDS011;59358;52.134;5.596;2023-02-28T03:43:44;7.18;;;4.68;;
19205;SDS011;59358;52.134;5.596;2023-02-28T03:46:18;8.68;;;3.88;;
19205;SDS011;59358;52.134;5.596;2023-02-28T03:48:49;5.80;;;4.25;;
19205;SDS011;59358;52.134;5.596;2023-02-28T03:51:22;8.57;;;4.35;;
19205;SDS011;59358;52.134;5.596;2023-02-28T03:53:52;9.57;;;5.30;;
19205;SDS011;59358;52.134;5.596;2023-02-28T03:56:23;7.50;;;4.63;;
19205;SDS011;59358;52.134;5.596;2023-02-28T03:58:57;7.78;;;4.68;;
19205;SDS011;59358;52.134;5.596;2023-02-28T04:01:29;6.40;;;4.18;;
19205;SDS011;59358;52.134;5.596;2023-02-28T04:04:00;9.13;;;4.85;;
19205;SDS011;59358;52.134;5.596;2023-02-28T04:06:29;7.05;;;4.57;;
19205;SDS011;59358;52.134;5.596;2023-02-28T04:08:57;3.95;;;3.35;;
19205;SDS011;59358;52.134;5.596;2023-02-28T04:11:27;6.63;;;4.05;;
19205;SDS011;59358;52.134;5.596;2023-02-28T04:13:58;5.75;;;3.90;;
19205;SDS011;59358;52.134;5.596;2023-02-28T04:16:25;5.28;;;4.07;;
19205;SDS011;59358;52.134;5.596;2023-02-28T04:18:52;10.00;;;3.85;;
19205;SDS011;59358;52.134;5.596;2023-02-28T04:21:28;9.40;;;3.83;;
19205;SDS011;59358;52.134;5.596;2023-02-28T04:23:55;5.60;;;3.72;;
19205;SDS011;59358;52.134;5.596;2023-02-28T04:26:27;8.00;;;4.35;;
19205;SDS011;59358;52.134;5.596;2023-02-28T04:28:54;7.80;;;4.15;;
19205;SDS011;59358;52.134;5.596;2023-02-28T04:31:21;6.13;;;3.65;;
19205;SDS011;59358;52.134;5.596;2023-02-28T04:33:48;6.93;;;3.30;;
19205;SDS011;59358;52.134;5.596;2023-02-28T04:36:15;7.13;;;3.85;;
19205;SDS011;59358;52.134;5.596;2023-02-28T04:38:44;5.68;;;3.53;;
19205;SDS011;59358;52.134;5.596;2023-02-28T04:41:12;9.32;;;3.67;;
19205;SDS011;59358;52.134;5.596;2023-02-28T04:43:40;6.78;;;3.55;;
19205;SDS011;59358;52.134;5.596;2023-02-28T04:46:07;9.20;;;3.90;;
19205;SDS011;59358;52.134;5.596;2023-02-28T04:48:37;7.75;;;3.58;;
19205;SDS011;59358;52.134;5.596;2023-02-28T04:51:06;7.47;;;3.17;;
19205;SDS011;59358;52.134;5.596;2023-02-28T04:53:34;4.88;;;3.20;;
19205;SDS011;59358;52.134;5.596;2023-02-28T04:56:03;4.63;;;3.13;;
19205;SDS011;59358;52.134;5.596;2023-02-28T04:58:31;7.40;;;3.40;;
19205;SDS011;59358;52.134;5.596;2023-02-28T05:01:01;5.63;;;3.70;;
19205;SDS011;59358;52.134;5.596;2023-02-28T05:03:28;4.20;;;3.80;;
19205;SDS011;59358;52.134;5.596;2023-02-28T05:05:55;5.70;;;3.53;;
19205;SDS011;59358;52.134;5.596;2023-02-28T05:08:22;7.45;;;3.38;;
19205;SDS011;59358;52.134;5.596;2023-02-28T05:10:50;6.47;;;4.20;;
19205;SDS011;59358;52.134;5.596;2023-02-28T05:13:18;4.03;;;3.60;;
19205;SDS011;59358;52.134;5.596;2023-02-28T05:15:45;5.68;;;3.60;;
19205;SDS011;59358;52.134;5.596;2023-02-28T05:18:12;4.47;;;3.47;;
19205;SDS011;59358;52.134;5.596;2023-02-28T05:20:39;5.97;;;4.13;;
19205;SDS011;59358;52.134;5.596;2023-02-28T05:23:05;10.30;;;3.55;;
19205;SDS011;59358;52.134;5.596;2023-02-28T05:25:32;4.32;;;3.33;;
19205;SDS011;59358;52.134;5.596;2023-02-28T05:27:59;4.95;;;3.38;;
19205;SDS011;59358;52.134;5.596;2023-02-28T05:30:27;5.60;;;3.88;;
19205;SDS011;59358;52.134;5.596;2023-02-28T05:32:55;7.57;;;4.13;;
19205;SDS011;59358;52.134;5.596;2023-02-28T05:35:21;5.25;;;3.30;;
19205;SDS011;59358;52.134;5.596;2023-02-28T05:37:48;5.28;;;3.78;;
19205;SDS011;59358;52.134;5.596;2023-02-28T05:40:15;5.55;;;3.70;;
19205;SDS011;59358;52.134;5.596;2023-02-28T05:42:45;6.60;;;3.80;;
19205;SDS011;59358;52.134;5.596;2023-02-28T05:45:12;5.57;;;3.75;;
19205;SDS011;59358;52.134;5.596;2023-02-28T05:47:41;9.95;;;4.72;;
19205;SDS011;59358;52.134;5.596;2023-02-28T05:50:08;7.30;;;4.82;;
19205;SDS011;59358;52.134;5.596;2023-02-28T05:52:36;6.13;;;4.50;;
19205;SDS011;59358;52.134;5.596;2023-02-28T05:55:03;7.97;;;4.50;;
19205;SDS011;59358;52.134;5.596;2023-02-28T05:57:31;9.98;;;4.95;;
19205;SDS011;59358;52.134;5.596;2023-02-28T05:59:58;6.50;;;4.32;;
19205;SDS011;59358;52.134;5.596;2023-02-28T06:02:25;7.93;;;6.30;;
19205;SDS011;59358;52.134;5.596;2023-02-28T06:04:53;11.40;;;7.30;;
19205;SDS011;59358;52.134;5.596;2023-02-28T06:07:20;11.57;;;6.90;;
19205;SDS011;59358;52.134;5.596;2023-02-28T06:09:47;9.40;;;5.10;;
19205;SDS011;59358;52.134;5.596;2023-02-28T06:12:14;5.57;;;3.47;;
19205;SDS011;59358;52.134;5.596;2023-02-28T06:14:41;6.65;;;5.47;;
19205;SDS011;59358;52.134;5.596;2023-02-28T06:17:08;7.97;;;4.45;;
19205;SDS011;59358;52.134;5.596;2023-02-28T06:19:36;7.25;;;5.72;;
19205;SDS011;59358;52.134;5.596;2023-02-28T06:22:05;7.22;;;4.68;;
19205;SDS011;59358;52.134;5.596;2023-02-28T06:24:31;8.98;;;4.90;;
19205;SDS011;59358;52.134;5.596;2023-02-28T06:26:58;4.90;;;3.42;;
19205;SDS011;59358;52.134;5.596;2023-02-28T06:29:30;5.10;;;4.13;;
19205;SDS011;59358;52.134;5.596;2023-02-28T06:31:57;9.32;;;3.95;;
19205;SDS011;59358;52.134;5.596;2023-02-28T06:34:24;9.57;;;4.75;;
19205;SDS011;59358;52.134;5.596;2023-02-28T06:36:51;5.85;;;3.97;;
19205;SDS011;59358;52.134;5.596;2023-02-28T06:39:20;6.05;;;4.43;;
19205;SDS011;59358;52.134;5.596;2023-02-28T06:41:46;5.65;;;4.07;;
19205;SDS011;59358;52.134;5.596;2023-02-28T06:44:14;6.60;;;4.05;;
19205;SDS011;59358;52.134;5.596;2023-02-28T06:46:42;7.10;;;3.97;;
19205;SDS011;59358;52.134;5.596;2023-02-28T06:49:10;7.22;;;4.80;;
19205;SDS011;59358;52.134;5.596;2023-02-28T06:51:38;7.53;;;4.90;;
19205;SDS011;59358;52.134;5.596;2023-02-28T06:54:07;6.85;;;4.95;;
19205;SDS011;59358;52.134;5.596;2023-02-28T06:56:36;7.40;;;4.55;;
19205;SDS011;59358;52.134;5.596;2023-02-28T06:59:03;7.20;;;4.50;;
19205;SDS011;59358;52.134;5.596;2023-02-28T07:01:30;6.05;;;4.80;;
19205;SDS011;59358;52.134;5.596;2023-02-28T07:03:57;6.30;;;4.38;;
19205;SDS011;59358;52.134;5.596;2023-02-28T07:06:25;10.75;;;4.97;;
19205;SDS011;59358;52.134;5.596;2023-02-28T07:08:52;10.57;;;4.60;;
19205;SDS011;59358;52.134;5.596;2023-02-28T07:11:20;6.22;;;4.50;;
19205;SDS011;59358;52.134;5.596;2023-02-28T07:13:49;9.00;;;4.82;;
19205;SDS011;59358;52.134;5.596;2023-02-28T07:16:16;7.00;;;4.57;;
19205;SDS011;59358;52.134;5.596;2023-02-28T07:18:42;9.40;;;5.30;;
19205;SDS011;59358;52.134;5.596;2023-02-28T07:21:10;9.48;;;5.25;;
19205;SDS011;59358;52.134;5.596;2023-02-28T07:23:37;7.40;;;4.47;;
19205;SDS011;59358;52.134;5.596;2023-02-28T07:26:05;7.78;;;4.18;;
19205;SDS011;59358;52.134;5.596;2023-02-28T07:28:32;6.07;;;4.82;;
19205;SDS011;59358;52.134;5.596;2023-02-28T07:31:04;9.68;;;5.18;;
19205;SDS011;59358;52.134;5.596;2023-02-28T07:33:32;10.23;;;4.88;;
19205;SDS011;59358;52.134;5.596;2023-02-28T07:36:00;25.75;;;12.05;;
19205;SDS011;59358;52.134;5.596;2023-02-28T07:38:27;30.13;;;14.82;;
19205;SDS011;59358;52.134;5.596;2023-02-28T07:40:54;30.73;;;15.00;;
19205;SDS011;59358;52.134;5.596;2023-02-28T07:43:21;23.75;;;12.20;;
19205;SDS011;59358;52.134;5.596;2023-02-28T07:45:48;14.80;;;7.47;;
19205;SDS011;59358;52.134;5.596;2023-02-28T07:48:17;7.22;;;4.70;;
19205;SDS011;59358;52.134;5.596;2023-02-28T07:50:44;7.78;;;4.75;;
19205;SDS011;59358;52.134;5.596;2023-02-28T07:53:13;6.60;;;3.90;;
19205;SDS011;59358;52.134;5.596;2023-02-28T07:55:39;7.05;;;4.05;;
19205;SDS011;59358;52.134;5.596;2023-02-28T07:58:06;8.90;;;4.20;;
19205;SDS011;59358;52.134;5.596;2023-02-28T08:00:33;8.55;;;4.88;;
19205;SDS011;59358;52.134;5.596;2023-02-28T08:03:00;6.65;;;4.22;;
19205;SDS011;59358;52.134;5.596;2023-02-28T08:05:28;9.98;;;4.45;;
19205;SDS011;59358;52.134;5.596;2023-02-28T08:07:56;8.68;;;4.57;;
19205;SDS011;59358;52.134;5.596;2023-02-28T08:10:23;11.07;;;4.65;;
19205;SDS011;59358;52.134;5.596;2023-02-28T08:12:49;6.72;;;4.20;;
19205;SDS011;59358;52.134;5.596;2023-02-28T08:15:16;10.25;;;4.82;;
19205;SDS011;59358;52.134;5.596;2023-02-28T08:17:43;9.88;;;4.00;;
19205;SDS011;59358;52.134;5.596;2023-02-28T08:20:10;9.45;;;4.35;;
19205;SDS011;59358;52.134;5.596;2023-02-28T08:22:39;8.75;;;3.78;;
19205;SDS011;59358;52.134;5.596;2023-02-28T08:25:07;4.78;;;3.90;;
19205;SDS011;59358;52.134;5.596;2023-02-28T08:27:34;10.15;;;4.22;;
19205;SDS011;59358;52.134;5.596;2023-02-28T08:30:02;5.55;;;3.35;;
19205;SDS011;59358;52.134;5.596;2023-02-28T08:32:29;7.18;;;3.95;;
19205;SDS011;59358;52.134;5.596;2023-02-28T08:34:58;5.63;;;3.45;;
19205;SDS011;59358;52.134;5.596;2023-02-28T08:37:25;7.15;;;3.55;;
19205;SDS011;59358;52.134;5.596;2023-02-28T08:39:53;5.25;;;3.35;;
19205;SDS011;59358;52.134;5.596;2023-02-28T08:42:20;4.72;;;2.95;;
19205;SDS011;59358;52.134;5.596;2023-02-28T08:44:47;4.05;;;3.22;;
19205;SDS011;59358;52.134;5.596;2023-02-28T08:47:14;7.50;;;2.97;;
19205;SDS011;59358;52.134;5.596;2023-02-28T08:49:41;7.15;;;2.47;;
19205;SDS011;59358;52.134;5.596;2023-02-28T08:52:08;4.13;;;2.22;;
19205;SDS011;59358;52.134;5.596;2023-02-28T08:54:35;4.45;;;2.20;;
19205;SDS011;59358;52.134;5.596;2023-02-28T08:57:03;6.80;;;2.50;;
19205;SDS011;59358;52.134;5.596;2023-02-28T08:59:30;6.20;;;1.80;;
19205;SDS011;59358;52.134;5.596;2023-02-28T09:01:57;1.67;;;1.35;;
19205;SDS011;59358;52.134;5.596;2023-02-28T09:04:24;2.28;;;1.42;;
19205;SDS011;59358;52.134;5.596;2023-02-28T09:06:51;2.63;;;1.33;;
19205;SDS011;59358;52.134;5.596;2023-02-28T09:09:18;2.65;;;1.85;;
19205;SDS011;59358;52.134;5.596;2023-02-28T09:11:45;1.83;;;1.60;;
19205;SDS011;59358;52.134;5.596;2023-02-28T09:14:14;2.83;;;1.52;;
19205;SDS011;59358;52.134;5.596;2023-02-28T09:16:42;1.73;;;1.50;;
19205;SDS011;59358;52.134;5.596;2023-02-28T09:19:10;1.65;;;1.20;;
19205;SDS011;59358;52.134;5.596;2023-02-28T09:21:37;4.93;;;2.15;;
19205;SDS011;59358;52.134;5.596;2023-02-28T09:24:04;5.47;;;1.70;;
19205;SDS011;59358;52.134;5.596;2023-02-28T09:26:31;3.63;;;1.65;;
19205;SDS011;59358;52.134;5.596;2023-02-28T09:28:59;3.38;;;1.35;;
19205;SDS011;59358;52.134;5.596;2023-02-28T09:31:29;3.00;;;1.70;;
19205;SDS011;59358;52.134;5.596;2023-02-28T09:33:56;4.03;;;1.85;;
19205;SDS011;59358;52.134;5.596;2023-02-28T09:36:24;3.28;;;1.60;;
19205;SDS011;59358;52.134;5.596;2023-02-28T09:38:53;5.38;;;1.95;;
19205;SDS011;59358;52.134;5.596;2023-02-28T09:41:21;5.95;;;2.17;;
19205;SDS011;59358;52.134;5.596;2023-02-28T09:43:49;3.60;;;1.80;;
19205;SDS011;59358;52.134;5.596;2023-02-28T09:46:25;2.85;;;1.92;;
19205;SDS011;59358;52.134;5.596;2023-02-28T09:48:59;5.47;;;2.13;;
19205;SDS011;59358;52.134;5.596;2023-02-28T09:51:30;5.60;;;1.80;;
19205;SDS011;59358;52.134;5.596;2023-02-28T09:54:14;4.70;;;2.08;;
19205;SDS011;59358;52.134;5.596;2023-02-28T09:56:44;7.25;;;1.52;;
19205;SDS011;59358;52.134;5.596;2023-02-28T09:59:13;11.02;;;2.20;;
19205;SDS011;59358;52.134;5.596;2023-02-28T10:01:54;7.60;;;1.70;;
19205;SDS011;59358;52.134;5.596;2023-02-28T10:04:35;1.80;;;1.40;;
19205;SDS011;59358;52.134;5.596;2023-02-28T10:07:12;1.67;;;1.40;;
19205;SDS011;59358;52.134;5.596;2023-02-28T10:09:46;1.35;;;1.25;;
19205;SDS011;59358;52.134;5.596;2023-02-28T10:12:18;1.88;;;1.38;;
19205;SDS011;59358;52.134;5.596;2023-02-28T10:14:46;1.58;;;1.38;;
19205;SDS011;59358;52.134;5.596;2023-02-28T10:17:19;7.70;;;1.50;;
19205;SDS011;59358;52.134;5.596;2023-02-28T10:19:51;2.10;;;1.35;;
19205;SDS011;59358;52.134;5.596;2023-02-28T10:22:27;2.13;;;1.50;;
19205;SDS011;59358;52.134;5.596;2023-02-28T10:24:59;1.40;;;1.30;;
19205;SDS011;59358;52.134;5.596;2023-02-28T10:27:29;1.48;;;1.30;;
19205;SDS011;59358;52.134;5.596;2023-02-28T10:29:57;1.70;;;1.45;;
19205;SDS011;59358;52.134;5.596;2023-02-28T10:32:27;3.83;;;1.52;;
19205;SDS011;59358;52.134;5.596;2023-02-28T10:34:57;3.92;;;1.55;;
19205;SDS011;59358;52.134;5.596;2023-02-28T10:37:25;7.32;;;2.10;;
19205;SDS011;59358;52.134;5.596;2023-02-28T10:39:53;2.88;;;1.65;;
19205;SDS011;59358;52.134;5.596;2023-02-28T10:42:22;5.55;;;1.80;;
19205;SDS011;59358;52.134;5.596;2023-02-28T10:47:40;4.40;;;2.13;;
19205;SDS011;59358;52.134;5.596;2023-02-28T10:50:29;6.32;;;1.90;;
19205;SDS011;59358;52.134;5.596;2023-02-28T10:53:16;2.25;;;1.63;;
19205;SDS011;59358;52.134;5.596;2023-02-28T10:55:56;3.65;;;1.50;;
19205;SDS011;59358;52.134;5.596;2023-02-28T10:58:24;2.88;;;1.83;;
19205;SDS011;59358;52.134;5.596;2023-02-28T11:00:53;1.90;;;1.48;;
19205;SDS011;59358;52.134;5.596;2023-02-28T11:03:25;1.73;;;1.20;;
19205;SDS011;59358;52.134;5.596;2023-02-28T11:05:58;2.60;;;1.58;;
19205;SDS011;59358;52.134;5.596;2023-02-28T11:08:31;7.30;;;1.73;;
19205;SDS011;59358;52.134;5.596;2023-02-28T11:11:00;4.85;;;1.63;;
19205;SDS011;59358;52.134;5.596;2023-02-28T11:13:32;3.83;;;1.80;;
19205;SDS011;59358;52.134;5.596;2023-02-28T11:16:01;6.28;;;1.50;;
19205;SDS011;59358;52.134;5.596;2023-02-28T11:18:33;4.50;;;1.50;;
19205;SDS011;59358;52.134;5.596;2023-02-28T11:21:06;10.52;;;2.10;;
19205;SDS011;59358;52.134;5.596;2023-02-28T11:23:37;5.28;;;1.20;;
19205;SDS011;59358;52.134;5.596;2023-02-28T11:26:07;2.33;;;1.65;;
19205;SDS011;59358;52.134;5.596;2023-02-28T11:28:36;2.97;;;1.45;;
19205;SDS011;59358;52.134;5.596;2023-02-28T11:31:06;1.45;;;1.35;;
19205;SDS011;59358;52.134;5.596;2023-02-28T11:33:48;4.03;;;1.58;;
19205;SDS011;59358;52.134;5.596;2023-02-28T11:36:18;2.22;;;1.60;;
19205;SDS011;59358;52.134;5.596;2023-02-28T11:38:46;4.32;;;1.60;;
19205;SDS011;59358;52.134;5.596;2023-02-28T11:41:21;2.40;;;1.85;;
19205;SDS011;59358;52.134;5.596;2023-02-28T11:46:54;20.58;;;3.00;;
19205;SDS011;59358;52.134;5.596;2023-02-28T11:49:31;5.40;;;1.60;;
19205;SDS011;59358;52.134;5.596;2023-02-28T11:52:05;16.92;;;2.50;;
19205;SDS011;59358;52.134;5.596;2023-02-28T11:54:45;3.28;;;1.63;;
19205;SDS011;59358;52.134;5.596;2023-02-28T11:57:31;2.40;;;1.67;;
19205;SDS011;59358;52.134;5.596;2023-02-28T12:00:06;2.13;;;1.40;;
19205;SDS011;59358;52.134;5.596;2023-02-28T12:02:46;3.15;;;2.08;;
19205;SDS011;59358;52.134;5.596;2023-02-28T12:05:25;2.28;;;1.55;;
19205;SDS011;59358;52.134;5.596;2023-02-28T12:08:01;3.58;;;1.42;;
19205;SDS011;59358;52.134;5.596;2023-02-28T12:10:39;6.13;;;1.88;;
19205;SDS011;59358;52.134;5.596;2023-02-28T12:13:21;8.45;;;1.85;;
19205;SDS011;59358;52.134;5.596;2023-02-28T12:16:03;5.97;;;1.90;;
19205;SDS011;59358;52.134;5.596;2023-02-28T12:21:37;11.07;;;2.60;;
19205;SDS011;59358;52.134;5.596;2023-02-28T12:24:22;2.78;;;2.03;;
19205;SDS011;59358;52.134;5.596;2023-02-28T12:27:05;3.40;;;1.83;;
19205;SDS011;59358;52.134;5.596;2023-02-28T12:29:39;3.40;;;2.20;;
19205;SDS011;59358;52.134;5.596;2023-02-28T12:32:09;3.08;;;1.70;;
19205;SDS011;59358;52.134;5.596;2023-02-28T12:34:41;6.22;;;2.00;;
19205;SDS011;59358;52.134;5.596;2023-02-28T12:37:17;3.58;;;1.60;;
19205;SDS011;59358;52.134;5.596;2023-02-28T12:39:50;6.82;;;3.30;;
19205;SDS011;59358;52.134;5.596;2023-02-28T12:42:23;5.55;;;2.08;;
19205;SDS011;59358;52.134;5.596;2023-02-28T12:44:54;3.38;;;1.85;;
19205;SDS011;59358;52.134;5.596;2023-02-28T12:47:24;3.08;;;2.20;;
19205;SDS011;59358;52.134;5.596;2023-02-28T12:49:52;5.20;;;2.20;;
19205;SDS011;59358;52.134;5.596;2023-02-28T12:52:25;3.70;;;2.05;;
19205;SDS011;59358;52.134;5.596;2023-02-28T12:54:59;4.65;;;2.10;;
19205;SDS011;59358;52.134;5.596;2023-02-28T12:57:34;3.17;;;1.77;;
19205;SDS011;59358;52.134;5.596;2023-02-28T13:00:10;5.30;;;2.40;;
19205;SDS011;59358;52.134;5.596;2023-02-28T13:02:47;3.22;;;1.65;;
19205;SDS011;59358;52.134;5.596;2023-02-28T13:05:39;4.20;;;1.73;;
19205;SDS011;59358;52.134;5.596;2023-02-28T13:11:25;3.15;;;2.08;;
19205;SDS011;59358;52.134;5.596;2023-02-28T13:14:00;1.75;;;1.65;;
19205;SDS011;59358;52.134;5.596;2023-02-28T13:16:28;3.40;;;1.58;;
19205;SDS011;59358;52.134;5.596;2023-02-28T13:19:28;2.40;;;1.73;;
19205;SDS011;59358;52.134;5.596;2023-02-28T13:21:57;2.22;;;1.92;;
19205;SDS011;59358;52.134;5.596;2023-02-28T13:27:22;2.95;;;1.80;;
19205;SDS011;59358;52.134;5.596;2023-02-28T13:29:58;3.20;;;2.05;;
19205;SDS011;59358;52.134;5.596;2023-02-28T13:38:21;5.63;;;2.38;;
19205;SDS011;59358;52.134;5.596;2023-02-28T13:40:52;3.28;;;2.40;;
19205;SDS011;59358;52.134;5.596;2023-02-28T13:43:18;6.40;;;3.00;;
19205;SDS011;59358;52.134;5.596;2023-02-28T13:48:38;1.88;;;1.77;;
19205;SDS011;59358;52.134;5.596;2023-02-28T13:54:00;3.92;;;2.30;;
19205;SDS011;59358;52.134;5.596;2023-02-28T13:56:36;5.28;;;2.30;;
19205;SDS011;59358;52.134;5.596;2023-02-28T13:59:15;2.40;;;1.80;;
19205;SDS011;59358;52.134;5.596;2023-02-28T14:01:52;3.45;;;2.35;;
19205;SDS011;59358;52.134;5.596;2023-02-28T14:04:45;2.30;;;2.10;;
19205;SDS011;59358;52.134;5.596;2023-02-28T14:07:24;3.15;;;1.77;;
19205;SDS011;59358;52.134;5.596;2023-02-28T14:09:56;3.20;;;2.30;;
19205;SDS011;59358;52.134;5.596;2023-02-28T14:15:44;7.97;;;2.72;;
19205;SDS011;59358;52.134;5.596;2023-02-28T14:20:58;3.15;;;2.00;;
19205;SDS011;59358;52.134;5.596;2023-02-28T14:23:44;4.13;;;2.05;;
19205;SDS011;59358;52.134;5.596;2023-02-28T14:32:47;4.30;;;2.30;;
19205;SDS011;59358;52.134;5.596;2023-02-28T14:35:22;2.97;;;2.00;;
19205;SDS011;59358;52.134;5.596;2023-02-28T14:38:14;3.50;;;1.85;;
19205;SDS011;59358;52.134;5.596;2023-02-28T14:40:46;2.97;;;1.80;;
19205;SDS011;59358;52.134;5.596;2023-02-28T14:43:19;5.88;;;2.00;;
19205;SDS011;59358;52.134;5.596;2023-02-28T14:45:53;6.07;;;2.22;;
19205;SDS011;59358;52.134;5.596;2023-02-28T14:48:24;5.70;;;1.73;;
19205;SDS011;59358;52.134;5.596;2023-02-28T14:50:52;10.63;;;2.05;;
19205;SDS011;59358;52.134;5.596;2023-02-28T14:53:21;6.57;;;2.00;;
19205;SDS011;59358;52.134;5.596;2023-02-28T14:55:50;6.50;;;1.95;;
19205;SDS011;59358;52.134;5.596;2023-02-28T14:58:21;10.00;;;2.65;;
19205;SDS011;59358;52.134;5.596;2023-02-28T15:00:50;2.42;;;1.95;;
19205;SDS011;59358;52.134;5.596;2023-02-28T15:03:21;2.20;;;1.88;;
19205;SDS011;59358;52.134;5.596;2023-02-28T15:05:52;2.08;;;1.80;;
19205;SDS011;59358;52.134;5.596;2023-02-28T15:08:20;3.95;;;1.95;;
19205;SDS011;59358;52.134;5.596;2023-02-28T15:10:51;4.72;;;1.98;;
19205;SDS011;59358;52.134;5.596;2023-02-28T15:13:20;3.95;;;1.67;;
19205;SDS011;59358;52.134;5.596;2023-02-28T15:15:48;2.22;;;1.77;;
19205;SDS011;59358;52.134;5.596;2023-02-28T15:18:23;4.50;;;2.20;;
19205;SDS011;59358;52.134;5.596;2023-02-28T15:20:56;2.40;;;2.20;;
19205;SDS011;59358;52.134;5.596;2023-02-28T15:23:25;3.03;;;1.80;;
19205;SDS011;59358;52.134;5.596;2023-02-28T15:25:52;3.08;;;1.73;;
19205;SDS011;59358;52.134;5.596;2023-02-28T15:28:21;3.40;;;1.83;;
19205;SDS011;59358;52.134;5.596;2023-02-28T15:30:51;4.68;;;1.92;;
19205;SDS011;59358;52.134;5.596;2023-02-28T15:33:22;1.92;;;1.70;;
19205;SDS011;59358;52.134;5.596;2023-02-28T15:35:50;3.00;;;2.17;;
19205;SDS011;59358;52.134;5.596;2023-02-28T15:38:21;3.38;;;2.13;;
19205;SDS011;59358;52.134;5.596;2023-02-28T15:40:50;6.70;;;1.65;;
19205;SDS011;59358;52.134;5.596;2023-02-28T15:43:23;5.07;;;2.00;;
19205;SDS011;59358;52.134;5.596;2023-02-28T15:45:52;3.35;;;1.45;;
19205;SDS011;59358;52.134;5.596;2023-02-28T15:48:26;2.42;;;1.60;;